Time;durP1;ratioP1;P1;durP2;ratioP2;P2;SDS_P1;SDS_P2;PMS_P1;PMS_P2;Temp;Humidity;BMP_temperature;BMP_pressure;BME280_temperature;BME280_humidity;BME280_pressure;Samples;Min_cycle;Max_cycle;Signal;HPM_P1;HPM_P2
2023/08/20 00:01:27;;;;;;;;;;;;;;;24.82;63.91;98324.03;5066717;28;19928;-68
2023/08/20 00:03:56;;;;;;;;;;;;;;;24.80;64.35;98326.41;5086269;28;19982;-66
2023/08/20 00:06:24;;;;;;;;;;;;;;;24.81;64.38;98328.00;5085417;28;19928;-68
2023/08/20 00:08:54;;;;;;;;;;;;;;;24.79;64.54;98319.28;5084445;28;20375;-68
2023/08/20 00:11:21;;;;;;;;;;;;;;;24.76;64.60;98325.59;5087681;28;19924;-68
2023/08/20 00:13:50;;;;;;;;;;;;;;;24.63;65.14;98316.09;5083887;28;20013;-68
2023/08/20 00:16:18;;;;;;;;;;;;;;;24.64;65.11;98320.44;5088007;28;19967;-67
2023/08/20 00:18:47;;;;;;;;;;;;;;;24.65;64.79;98322.03;5077450;28;20278;-68
2023/08/20 00:21:17;;;;;;;;;;;;;;;24.65;64.48;98313.69;5082074;28;19925;-68
2023/08/20 00:23:45;;;;;;;;;;;;;;;24.58;65.09;98317.25;5086864;28;19924;-68
2023/08/20 00:26:14;;;;;;;;;;;;;;;24.61;64.93;98312.88;5091329;28;19924;-67
2023/08/20 00:28:42;;;;;;;;;;;;;;;24.61;65.33;98313.72;5105470;28;19930;-68
2023/08/20 00:31:10;;;;;;;;;;;;;;;24.64;65.07;98318.47;5078368;28;19973;-67
2023/08/20 00:33:38;;;;;;;;;;;;;;;24.65;64.72;98310.91;5100290;28;20015;-67
2023/08/20 00:36:08;;;;;;;;;;;;;;;24.60;65.20;98314.88;5066000;28;19932;-68
2023/08/20 00:38:38;;;;;;;;;;;;;;;24.59;65.10;98309.72;5086588;28;19994;-68
2023/08/20 00:41:08;;;;;;;;;;;;;;;24.56;65.58;98312.09;5093506;28;19935;-68
2023/08/20 00:43:38;;;;;;;;;;;;;;;24.53;66.03;98312.09;5060166;28;19928;-68
2023/08/20 00:46:06;;;;;;;;;;;;;;;24.51;66.36;98314.47;5094799;28;19955;-68
2023/08/20 00:48:34;;;;;;;;;;;;;;;24.46;66.27;98315.66;5058545;28;19932;-68
2023/08/20 00:51:03;;;;;;;;;;;;;;;24.40;66.54;98308.13;5071059;28;19924;-69
2023/08/20 00:53:31;;;;;;;;;;;;;;;24.36;66.70;98310.88;5093148;28;20270;-67
2023/08/20 00:55:58;;;;;;;;;;;;;;;24.35;66.52;98314.84;5081846;28;19939;-68
2023/08/20 00:58:27;;;;;;;;;;;;;;;24.27;66.72;98315.97;5073877;28;19924;-68
2023/08/20 01:00:59;;;;;;;;;;;;;;;24.20;66.83;98313.19;5074531;28;19924;-71
2023/08/20 01:03:28;;;;;;;;;;;;;;;24.16;66.99;98309.59;5106603;28;20297;-68
2023/08/20 01:05:59;;;;;;;;;;;;;;;24.18;66.91;98307.22;5093680;28;19929;-68
2023/08/20 01:08:28;;;;;;;;;;;;;;;24.14;66.63;98306.44;5079569;28;19924;-68
2023/08/20 01:10:57;;;;;;;;;;;;;;;24.16;66.48;98315.16;5065943;28;20380;-68
2023/08/20 01:13:25;;;;;;;;;;;;;;;24.18;66.27;98318.31;5072733;28;20289;-68
2023/08/20 01:15:53;;;;;;;;;;;;;;;24.24;65.87;98316.78;5073574;28;19924;-68
2023/08/20 01:18:22;;;;;;;;;;;;;;;24.25;65.63;98310.03;5099955;28;20391;-68
2023/08/20 01:20:52;;;;;;;;;;;;;;;24.22;65.91;98313.56;5087269;28;19931;-67
2023/08/20 01:23:27;;;;;;;;;;;;;;;24.22;65.86;98319.91;5072873;28;20304;-68
2023/08/20 01:26:00;;;;;;;;;;;;;;;24.25;65.73;98321.91;5070603;28;19924;-67
2023/08/20 01:28:31;;;;;;;;;;;;;;;24.24;65.84;98325.91;5090488;28;20385;-67
2023/08/20 01:31:00;;;;;;;;;;;;;;;24.17;65.97;98325.84;5112160;27;19935;-67
2023/08/20 01:33:28;;;;;;;;;;;;;;;24.20;65.95;98332.63;5076052;28;19924;-67
2023/08/20 01:35:58;;;;;;;;;;;;;;;24.20;65.91;98333.41;5073601;28;19928;-68
2023/08/20 01:38:26;;;;;;;;;;;;;;;24.20;66.03;98338.16;5074449;28;19932;-67
2023/08/20 01:40:56;;;;;;;;;;;;;;;24.12;66.36;98339.31;5076954;28;20285;-67
2023/08/20 01:43:23;;;;;;;;;;;;;;;24.08;66.75;98341.31;5068982;28;19931;-67
2023/08/20 01:45:56;;;;;;;;;;;;;;;24.09;66.62;98346.47;5083164;28;19935;-67
2023/08/20 01:48:24;;;;;;;;;;;;;;;23.94;66.73;98345.59;5074517;28;19930;-67
2023/08/20 01:50:52;;;;;;;;;;;;;;;23.84;67.17;98348.31;5073611;28;19924;-67
2023/08/20 01:53:20;;;;;;;;;;;;;;;23.87;67.01;98348.34;5072074;28;19928;-67
2023/08/20 01:55:48;;;;;;;;;;;;;;;23.75;67.07;98345.88;5042473;28;19924;-68
2023/08/20 01:58:16;;;;;;;;;;;;;;;23.77;66.96;98347.09;5048826;28;20336;-68
2023/08/20 02:00:43;;;;;;;;;;;;;;;23.74;66.84;98349.84;5044374;28;19925;-67
2023/08/20 02:03:13;;;;;;;;;;;;;;;23.67;67.41;98347.03;5048362;28;19928;-67
2023/08/20 02:05:41;;;;;;;;;;;;;;;23.64;67.55;98348.59;5056332;28;20457;-67
2023/08/20 02:08:09;;;;;;;;;;;;;;;23.69;67.30;98350.22;5046537;28;20074;-68
2023/08/20 02:10:37;;;;;;;;;;;;;;;23.69;67.26;98353.00;5048218;28;19936;-67
2023/08/20 02:13:07;;;;;;;;;;;;;;;23.53;67.62;98342.97;5049721;28;19925;-67
2023/08/20 02:15:34;;;;;;;;;;;;;;;23.55;67.81;98336.25;5049460;28;19924;-68
2023/08/20 02:18:03;;;;;;;;;;;;;;;23.60;67.91;98345.00;5060228;28;19925;-69
2023/08/20 02:20:32;;;;;;;;;;;;;;;23.61;67.68;98340.25;5072439;28;19978;-67
2023/08/20 02:23:00;;;;;;;;;;;;;;;23.61;67.61;98340.25;5049077;28;19924;-67
2023/08/20 02:25:28;;;;;;;;;;;;;;;23.57;67.78;98344.97;5047384;28;19925;-66
2023/08/20 02:27:55;;;;;;;;;;;;;;;23.61;67.30;98345.78;5048711;28;19924;-66
2023/08/20 02:30:23;;;;;;;;;;;;;;;23.63;67.22;98349.00;5048654;28;19929;-67
2023/08/20 02:32:51;;;;;;;;;;;;;;;23.63;67.25;98357.31;5048309;28;20150;-65
2023/08/20 02:35:19;;;;;;;;;;;;;;;23.61;67.17;98359.66;5048520;28;19931;-66
2023/08/20 02:37:51;;;;;;;;;;;;;;;23.56;67.41;98358.03;5048658;28;19975;-66
2023/08/20 02:40:22;;;;;;;;;;;;;;;23.56;67.15;98354.47;5052683;28;20297;-66
2023/08/20 02:42:50;;;;;;;;;;;;;;;23.57;67.09;98353.28;5050135;28;20397;-66
2023/08/20 02:45:17;;;;;;;;;;;;;;;23.56;67.19;98354.47;5048598;28;19925;-66
2023/08/20 02:47:45;;;;;;;;;;;;;;;23.50;67.38;98356.81;5048126;28;19933;-66
2023/08/20 02:50:13;;;;;;;;;;;;;;;23.43;67.62;98356.75;5048562;28;19928;-66
2023/08/20 02:52:42;;;;;;;;;;;;;;;23.45;67.20;98355.19;5045919;28;19936;-67
2023/08/20 02:55:11;;;;;;;;;;;;;;;23.42;67.64;98344.06;5043829;28;20026;-66
2023/08/20 02:57:39;;;;;;;;;;;;;;;23.37;67.82;98342.47;5048060;28;19925;-66
2023/08/20 03:00:11;;;;;;;;;;;;;;;23.39;67.83;98344.88;5047305;28;19931;-67
2023/08/20 03:02:39;;;;;;;;;;;;;;;23.40;67.49;98340.91;5048206;28;19929;-65
2023/08/20 03:05:08;;;;;;;;;;;;;;;23.31;68.18;98338.47;5047580;28;19974;-65
2023/08/20 03:07:36;;;;;;;;;;;;;;;23.24;68.33;98347.53;5047920;28;19925;-66
2023/08/20 03:10:04;;;;;;;;;;;;;;;23.27;68.35;98338.44;5047004;28;19925;-66
2023/08/20 03:12:33;;;;;;;;;;;;;;;23.31;68.06;98340.44;5050853;28;20293;-66
2023/08/20 03:15:02;;;;;;;;;;;;;;;23.32;68.08;98342.81;5064873;28;19930;-65
2023/08/20 03:17:30;;;;;;;;;;;;;;;23.33;67.88;98336.13;5051531;28;19932;-66
2023/08/20 03:19:58;;;;;;;;;;;;;;;23.34;67.71;98346.03;5052478;28;19924;-66
2023/08/20 03:22:26;;;;;;;;;;;;;;;23.34;67.69;98343.25;5048004;28;19929;-65
2023/08/20 03:24:54;;;;;;;;;;;;;;;23.32;67.75;98342.03;5048074;28;19983;-65
2023/08/20 03:27:22;;;;;;;;;;;;;;;23.29;67.85;98346.38;5046814;28;20389;-66
2023/08/20 03:29:52;;;;;;;;;;;;;;;23.25;68.03;98348.31;5062941;28;19928;-66
2023/08/20 03:32:20;;;;;;;;;;;;;;;23.24;67.52;98352.28;5056714;28;19929;-65
2023/08/20 03:34:49;;;;;;;;;;;;;;;23.22;67.87;98347.13;5050732;28;19931;-65
2023/08/20 03:37:19;;;;;;;;;;;;;;;23.23;67.78;98359.00;5051140;28;19932;-66
2023/08/20 03:39:46;;;;;;;;;;;;;;;23.05;68.33;98347.75;5059861;28;19924;-65
2023/08/20 03:42:14;;;;;;;;;;;;;;;22.96;68.59;98345.34;5048950;28;19925;-65
2023/08/20 03:44:42;;;;;;;;;;;;;;;22.98;68.92;98354.06;5047603;28;20070;-65
2023/08/20 03:47:11;;;;;;;;;;;;;;;23.02;68.63;98353.28;5047324;28;20308;-65
2023/08/20 03:49:39;;;;;;;;;;;;;;;23.05;68.78;98352.50;5048007;28;19932;-66
2023/08/20 03:52:07;;;;;;;;;;;;;;;23.06;68.94;98349.34;5047066;28;19936;-66
2023/08/20 03:54:35;;;;;;;;;;;;;;;22.99;69.34;98350.09;5053993;28;19928;-65
2023/08/20 03:57:03;;;;;;;;;;;;;;;22.85;69.70;98352.72;5067317;28;19985;-67
2023/08/20 03:59:31;;;;;;;;;;;;;;;22.74;70.05;98352.63;5103495;28;19931;-66
2023/08/20 04:01:59;;;;;;;;;;;;;;;22.78;70.37;98352.66;5070664;28;19978;-65
2023/08/20 04:04:28;;;;;;;;;;;;;;;22.84;70.07;98364.16;5103994;28;19931;-65
2023/08/20 04:06:56;;;;;;;;;;;;;;;22.83;70.07;98363.38;5070470;28;20292;-65
2023/08/20 04:09:24;;;;;;;;;;;;;;;22.76;70.31;98363.31;5088623;28;21529;-65
2023/08/20 04:11:54;;;;;;;;;;;;;;;22.62;70.83;98357.63;5071463;28;19928;-66
2023/08/20 04:14:22;;;;;;;;;;;;;;;22.52;71.45;98353.56;5070538;28;20370;-66
2023/08/20 04:16:49;;;;;;;;;;;;;;;22.56;71.28;98353.63;5071770;28;19956;-66
2023/08/20 04:19:19;;;;;;;;;;;;;;;22.64;70.86;98361.63;5069766;28;19924;-66
2023/08/20 04:21:49;;;;;;;;;;;;;;;22.73;70.73;98369.59;5070856;28;19927;-66
2023/08/20 04:24:16;;;;;;;;;;;;;;;22.80;70.44;98368.88;5098141;28;19924;-64
2023/08/20 04:26:44;;;;;;;;;;;;;;;22.82;70.14;98367.34;5079227;28;19935;-65
2023/08/20 04:29:15;;;;;;;;;;;;;;;22.83;70.42;98368.91;5067691;28;19928;-65
2023/08/20 04:31:43;;;;;;;;;;;;;;;22.84;70.20;98364.97;5067974;28;19935;-65
2023/08/20 04:34:11;;;;;;;;;;;;;;;22.88;69.94;98370.59;5075473;28;19928;-65
2023/08/20 04:36:43;;;;;;;;;;;;;;;22.90;69.85;98363.47;5072794;28;19928;-65
2023/08/20 04:39:13;;;;;;;;;;;;;;;22.91;69.60;98367.84;5084031;28;19923;-65
2023/08/20 04:41:45;;;;;;;;;;;;;;;22.91;69.60;98367.84;5074995;28;20007;-65
2023/08/20 04:44:16;;;;;;;;;;;;;;;22.90;69.67;98371.78;5072137;28;19981;-65
2023/08/20 04:46:45;;;;;;;;;;;;;;;22.92;69.63;98377.75;5074178;28;20012;-65
2023/08/20 04:49:13;;;;;;;;;;;;;;;22.92;69.66;98379.72;5074004;28;19932;-65
2023/08/20 04:51:41;;;;;;;;;;;;;;;22.93;69.20;98379.34;5074129;28;19989;-65
2023/08/20 04:54:09;;;;;;;;;;;;;;;22.87;69.85;98371.72;5073207;28;19939;-65
2023/08/20 04:56:39;;;;;;;;;;;;;;;22.69;70.27;98372.38;5101841;28;19932;-66
2023/08/20 04:59:07;;;;;;;;;;;;;;;22.65;70.16;98379.03;5077840;28;20404;-65
2023/08/20 05:01:54;;;;;;;;;;;;;;;22.70;70.22;98387.00;5089817;28;19998;-66
2023/08/20 05:04:37;;;;;;;;;;;;;;;22.78;70.04;98382.31;5101226;27;19924;-66
2023/08/20 05:07:05;;;;;;;;;;;;;;;22.82;69.80;98385.94;5104214;28;19924;-65
2023/08/20 05:09:33;;;;;;;;;;;;;;;22.83;70.20;98379.22;5097097;27;19947;-65
2023/08/20 05:12:02;;;;;;;;;;;;;;;22.70;70.16;98373.16;5060798;28;19928;-66
2023/08/20 05:14:31;;;;;;;;;;;;;;;22.65;69.85;98388.13;5073942;28;19957;-65
2023/08/20 05:16:58;;;;;;;;;;;;;;;22.62;70.58;98386.13;5091945;28;19924;-66
2023/08/20 05:19:26;;;;;;;;;;;;;;;22.57;71.09;98389.22;5083173;28;20513;-65
2023/08/20 05:21:58;;;;;;;;;;;;;;;22.55;71.23;98393.56;5107932;28;19939;-65
2023/08/20 05:24:28;;;;;;;;;;;;;;;22.52;71.64;98405.38;5073787;28;19927;-65
2023/08/20 05:27:09;;;;;;;;;;;;;;;22.54;71.18;98400.28;5073526;28;20370;-65
2023/08/20 05:29:37;;;;;;;;;;;;;;;22.55;71.49;98402.66;5106844;28;19967;-65
2023/08/20 05:32:05;;;;;;;;;;;;;;;22.49;71.71;98398.66;5114875;27;20010;-65
2023/08/20 05:34:33;;;;;;;;;;;;;;;22.53;71.60;98407.78;5072431;28;19928;-65
2023/08/20 05:37:01;;;;;;;;;;;;;;;22.65;71.21;98412.28;5073635;28;19967;-65
2023/08/20 05:39:30;;;;;;;;;;;;;;;22.75;70.93;98411.59;5073022;28;19925;-65
2023/08/20 05:41:58;;;;;;;;;;;;;;;22.79;70.57;98409.63;5086381;28;19928;-65
2023/08/20 05:44:29;;;;;;;;;;;;;;;22.74;70.37;98413.56;5073749;28;19924;-66
2023/08/20 05:46:58;;;;;;;;;;;;;;;22.83;70.12;98415.22;5060834;28;19924;-65
2023/08/20 05:49:26;;;;;;;;;;;;;;;22.80;69.80;98425.09;5072866;28;20429;-66
2023/08/20 05:51:56;;;;;;;;;;;;;;;22.84;70.09;98423.13;5069903;28;19925;-65
2023/08/20 05:54:24;;;;;;;;;;;;;;;22.94;69.69;98416.16;5069329;28;20023;-65
2023/08/20 05:56:55;;;;;;;;;;;;;;;23.03;69.49;98410.31;5073266;28;19954;-66
2023/08/20 05:59:23;;;;;;;;;;;;;;;23.09;69.37;98412.34;5072697;28;19928;-65
2023/08/20 06:01:53;;;;;;;;;;;;;;;23.14;69.35;98412.00;5079224;28;19923;-65
2023/08/20 06:04:21;;;;;;;;;;;;;;;23.13;69.28;98412.38;5072771;28;19939;-65
2023/08/20 06:06:49;;;;;;;;;;;;;;;23.18;68.86;98406.47;5095849;28;19928;-66
2023/08/20 06:09:17;;;;;;;;;;;;;;;23.20;69.28;98409.66;5090752;28;19935;-65
2023/08/20 06:11:45;;;;;;;;;;;;;;;23.27;68.80;98404.16;5084638;28;20284;-66
2023/08/20 06:14:13;;;;;;;;;;;;;;;23.27;68.57;98409.72;5073859;28;19960;-65
2023/08/20 06:16:40;;;;;;;;;;;;;;;23.25;69.02;98414.84;5092028;28;19924;-65
2023/08/20 06:19:10;;;;;;;;;;;;;;;23.33;68.97;98408.19;5094276;28;19924;-65
2023/08/20 06:21:38;;;;;;;;;;;;;;;23.32;68.79;98401.03;5071867;28;19935;-65
2023/08/20 06:24:06;;;;;;;;;;;;;;;23.34;68.53;98398.69;5099716;28;19930;-66
2023/08/20 06:26:34;;;;;;;;;;;;;;;23.36;68.46;98398.31;5072305;28;19924;-65
2023/08/20 06:29:02;;;;;;;;;;;;;;;23.42;68.46;98392.00;5061027;28;19931;-69
2023/08/20 06:31:30;;;;;;;;;;;;;;;23.47;68.42;98394.41;5090061;28;20387;-66
2023/08/20 06:33:58;;;;;;;;;;;;;;;23.53;68.22;98397.63;5090748;28;20388;-66
2023/08/20 06:36:27;;;;;;;;;;;;;;;23.57;68.24;98390.13;5071351;28;19938;-65
2023/08/20 06:38:55;;;;;;;;;;;;;;;23.61;68.13;98392.94;5072905;28;19950;-66
2023/08/20 06:41:23;;;;;;;;;;;;;;;23.67;68.11;98388.66;5090888;28;19928;-65
2023/08/20 06:43:51;;;;;;;;;;;;;;;23.61;67.68;98392.94;5077231;28;19923;-66
2023/08/20 06:46:19;;;;;;;;;;;;;;;23.70;67.81;98401.72;5071997;28;19924;-66
2023/08/20 06:48:46;;;;;;;;;;;;;;;23.74;68.21;98403.34;5073558;28;19939;-65
2023/08/20 06:51:15;;;;;;;;;;;;;;;23.76;67.63;98409.31;5074885;28;19924;-66
2023/08/20 06:53:44;;;;;;;;;;;;;;;23.81;67.30;98410.94;5105523;28;19931;-67
2023/08/20 06:56:12;;;;;;;;;;;;;;;23.86;66.63;98418.09;5084518;28;20358;-65
2023/08/20 06:58:40;;;;;;;;;;;;;;;23.81;67.44;98412.91;5071784;28;19947;-66
2023/08/20 07:01:08;;;;;;;;;;;;;;;23.87;67.00;98409.41;5087896;28;19928;-67
2023/08/20 07:03:37;;;;;;;;;;;;;;;23.93;67.12;98418.94;5086429;28;20389;-69
2023/08/20 07:06:04;;;;;;;;;;;;;;;24.00;67.32;98418.97;5092430;28;19924;-66
2023/08/20 07:08:32;;;;;;;;;;;;;;;24.04;67.00;98425.34;5086543;28;19932;-66
2023/08/20 07:11:01;;;;;;;;;;;;;;;24.09;66.76;98432.50;5089538;28;19928;-67
2023/08/20 07:13:29;;;;;;;;;;;;;;;24.19;66.53;98436.53;5090012;28;19935;-67
2023/08/20 07:16:00;;;;;;;;;;;;;;;24.26;66.53;98431.78;5089248;28;19946;-67
2023/08/20 07:18:28;;;;;;;;;;;;;;;24.33;65.72;98438.56;5090388;28;20361;-67
2023/08/20 07:20:56;;;;;;;;;;;;;;;24.37;65.34;98429.09;5088488;28;19925;-67
2023/08/20 07:23:24;;;;;;;;;;;;;;;24.41;65.11;98431.91;5089777;28;19928;-66
2023/08/20 07:25:52;;;;;;;;;;;;;;;24.31;64.64;98433.41;5103084;28;19931;-67
2023/08/20 07:28:56;;;;;;;;;;;;;;;24.25;64.16;98434.97;5080878;28;19931;-67
2023/08/20 07:31:10;;;;;;;;;;;;;;;24.23;64.50;98437.31;5069411;28;19924;-65
2023/08/20 07:33:38;;;;;;;;;;;;;;;24.28;64.74;98437.75;5070505;28;19932;-66
2023/08/20 07:36:06;;;;;;;;;;;;;;;24.43;64.52;98441.41;5087622;28;19955;-67
2023/08/20 07:38:34;;;;;;;;;;;;;;;24.55;64.78;98449.41;5090578;28;20450;-65
2023/08/20 07:41:03;;;;;;;;;;;;;;;24.66;64.97;98443.91;5090033;28;19928;-65
2023/08/20 07:43:32;;;;;;;;;;;;;;;24.62;63.56;98443.09;5088261;28;20290;-67
2023/08/20 07:46:00;;;;;;;;;;;;;;;24.63;62.90;98441.09;5089915;28;19981;-67
2023/08/20 07:48:28;;;;;;;;;;;;;;;24.75;62.76;98440.72;5075525;28;19931;-67
2023/08/20 07:50:56;;;;;;;;;;;;;;;24.74;62.48;98444.69;5079975;28;19929;-67
2023/08/20 07:53:24;;;;;;;;;;;;;;;24.83;62.78;98443.13;5086328;28;19928;-66
2023/08/20 07:55:52;;;;;;;;;;;;;;;24.94;62.57;98442.38;5082549;28;20320;-67
2023/08/20 07:58:19;;;;;;;;;;;;;;;24.94;61.74;98447.94;5088948;28;19930;-67
2023/08/20 08:00:51;;;;;;;;;;;;;;;25.01;61.45;98443.16;5089423;28;19964;-67
2023/08/20 08:03:19;;;;;;;;;;;;;;;25.02;61.34;98441.97;5071123;28;19931;-67
2023/08/20 08:05:48;;;;;;;;;;;;;;;25.06;60.38;98437.25;5089282;28;20323;-67
2023/08/20 08:08:16;;;;;;;;;;;;;;;25.17;61.04;98442.81;5089749;28;19932;-67
2023/08/20 08:10:44;;;;;;;;;;;;;;;25.21;60.73;98440.06;5089629;28;19978;-67
2023/08/20 08:13:12;;;;;;;;;;;;;;;25.29;60.53;98442.44;5091165;28;19931;-66
2023/08/20 08:15:40;;;;;;;;;;;;;;;25.31;60.26;98450.41;5091514;28;20373;-67
2023/08/20 08:18:09;;;;;;;;;;;;;;;25.33;59.91;98453.56;5070201;28;19929;-67
2023/08/20 08:20:37;;;;;;;;;;;;;;;25.43;60.36;98447.22;5085437;28;19932;-67
2023/08/20 08:23:05;;;;;;;;;;;;;;;25.43;59.69;98452.78;5080505;28;19931;-67
2023/08/20 08:25:33;;;;;;;;;;;;;;;25.49;59.13;98453.97;5102698;28;19924;-65
2023/08/20 08:28:01;;;;;;;;;;;;;;;25.51;59.19;98453.56;5074748;28;19968;-65
2023/08/20 08:30:30;;;;;;;;;;;;;;;25.48;59.53;98452.38;5074387;28;19935;-65
2023/08/20 08:32:57;;;;;;;;;;;;;;;25.57;58.99;98452.00;5074211;28;19928;-67
2023/08/20 08:35:27;;;;;;;;;;;;;;;25.57;59.55;98458.34;5099741;28;19928;-67
2023/08/20 08:37:54;;;;;;;;;;;;;;;25.70;59.64;98461.50;5091489;28;20417;-65
2023/08/20 08:40:22;;;;;;;;;;;;;;;25.75;59.31;98463.94;5093244;28;19928;-65
2023/08/20 08:42:51;;;;;;;;;;;;;;;25.76;59.61;98465.50;5074340;28;19931;-65
2023/08/20 08:45:19;;;;;;;;;;;;;;;25.76;58.07;98459.16;5087371;28;19947;-65
2023/08/20 08:47:47;;;;;;;;;;;;;;;25.78;58.03;98465.09;5088297;28;20303;-65
2023/08/20 08:50:15;;;;;;;;;;;;;;;25.85;57.84;98463.13;5088348;28;20335;-65
2023/08/20 08:52:44;;;;;;;;;;;;;;;25.87;57.00;98465.50;5076948;28;19924;-66
2023/08/20 08:55:12;;;;;;;;;;;;;;;25.93;57.08;98468.66;5086382;28;19932;-66
2023/08/20 08:57:40;;;;;;;;;;;;;;;25.99;57.55;98467.06;5092684;28;19924;-66
2023/08/20 09:00:08;;;;;;;;;;;;;;;26.02;57.07;98467.06;5084539;28;19939;-65
2023/08/20 09:02:36;;;;;;;;;;;;;;;26.03;57.25;98463.06;5083746;28;20541;-65
2023/08/20 09:05:05;;;;;;;;;;;;;;;26.07;56.92;98469.44;5083020;28;19985;-65
2023/08/20 09:07:33;;;;;;;;;;;;;;;26.10;56.21;98463.09;5089875;28;19986;-65
2023/08/20 09:10:03;;;;;;;;;;;;;;;26.12;55.96;98465.47;5085589;28;19924;-66
2023/08/20 09:12:31;;;;;;;;;;;;;;;26.21;56.01;98462.25;5092905;28;19924;-66
2023/08/20 09:15:00;;;;;;;;;;;;;;;26.24;55.36;98467.00;5073329;28;19928;-65
2023/08/20 09:17:31;;;;;;;;;;;;;;;26.23;55.37;98465.44;5081937;28;19931;-66
2023/08/20 09:19:59;;;;;;;;;;;;;;;26.26;55.08;98459.03;5067914;28;19963;-66
2023/08/20 09:22:27;;;;;;;;;;;;;;;26.30;56.17;98460.63;5085612;28;19953;-67
2023/08/20 09:24:55;;;;;;;;;;;;;;;26.32;55.43;98463.03;5077654;28;19924;-66
2023/08/20 09:27:24;;;;;;;;;;;;;;;26.27;54.36;98455.06;5080405;28;19928;-65
2023/08/20 09:29:53;;;;;;;;;;;;;;;26.36;54.01;98464.56;5080948;28;19924;-65
2023/08/20 09:32:22;;;;;;;;;;;;;;;26.42;54.83;98462.22;5091158;28;19924;-67
2023/08/20 09:34:50;;;;;;;;;;;;;;;26.51;54.19;98459.78;5102757;28;20416;-66
2023/08/20 09:37:18;;;;;;;;;;;;;;;26.59;53.36;98461.34;5091525;28;19924;-66
2023/08/20 09:39:46;;;;;;;;;;;;;;;26.59;52.98;98458.56;5079957;28;19934;-66
2023/08/20 09:42:14;;;;;;;;;;;;;;;26.66;53.17;98459.72;5098368;28;19930;-66
2023/08/20 09:44:43;;;;;;;;;;;;;;;26.68;52.38;98468.47;5083380;28;19932;-65
2023/08/20 09:47:12;;;;;;;;;;;;;;;26.74;51.65;98466.84;5091376;28;19924;-66
2023/08/20 09:49:40;;;;;;;;;;;;;;;26.76;53.76;98470.03;5091544;28;19934;-66
2023/08/20 09:52:09;;;;;;;;;;;;;;;26.67;54.00;98473.25;5090019;28;19977;-66
2023/08/20 09:54:48;;;;;;;;;;;;;;;26.72;51.46;98463.66;5086608;28;19924;-66
2023/08/20 09:57:19;;;;;;;;;;;;;;;26.74;52.03;98467.66;5089047;28;19924;-66
2023/08/20 09:59:48;;;;;;;;;;;;;;;26.72;50.88;98470.03;5090937;28;20437;-66
2023/08/20 10:02:16;;;;;;;;;;;;;;;26.75;50.72;98469.25;5068870;28;19925;-66
2023/08/20 10:04:44;;;;;;;;;;;;;;;26.88;50.98;98463.97;5088223;28;19971;-67
2023/08/20 10:07:12;;;;;;;;;;;;;;;26.98;50.05;98454.75;5092942;28;19947;-67
2023/08/20 10:09:40;;;;;;;;;;;;;;;27.02;50.18;98458.34;5094840;28;19924;-66
2023/08/20 10:12:10;;;;;;;;;;;;;;;27.14;49.13;98459.88;5091717;28;20309;-66
2023/08/20 10:14:39;;;;;;;;;;;;;;;27.21;48.11;98447.88;5097108;28;19932;-66
2023/08/20 10:17:09;;;;;;;;;;;;;;;27.30;47.81;98448.19;5088515;28;19932;-66
2023/08/20 10:19:37;;;;;;;;;;;;;;;27.27;48.85;98449.84;5097675;28;19967;-66
2023/08/20 10:22:05;;;;;;;;;;;;;;;27.25;50.12;98457.00;5089717;28;19924;-66
2023/08/20 10:24:41;;;;;;;;;;;;;;;27.24;49.12;98453.44;5089947;28;19985;-67
2023/08/20 10:27:09;;;;;;;;;;;;;;;27.17;50.83;98455.50;5090235;28;19928;-66
2023/08/20 10:29:38;;;;;;;;;;;;;;;27.14;49.58;98452.28;5070065;28;19931;-67
2023/08/20 10:32:13;;;;;;;;;;;;;;;27.12;51.93;98457.50;5089779;28;20273;-67
2023/08/20 10:34:43;;;;;;;;;;;;;;;27.07;50.73;98463.50;5070572;28;20032;-67
2023/08/20 10:37:11;;;;;;;;;;;;;;;27.09;50.68;98454.72;5089798;28;19928;-66
2023/08/20 10:39:42;;;;;;;;;;;;;;;27.15;49.14;98453.88;5102654;28;19981;-66
2023/08/20 10:42:12;;;;;;;;;;;;;;;27.45;48.15;98463.63;5060761;28;19928;-66
2023/08/20 10:44:59;;;;;;;;;;;;;;;27.44;49.16;98464.84;5078554;28;20015;-66
2023/08/20 10:47:33;;;;;;;;;;;;;;;27.34;49.40;98449.78;5072439;28;20296;-66
2023/08/20 10:50:02;;;;;;;;;;;;;;;27.36;50.79;98452.13;5089095;28;19928;-67
2023/08/20 10:52:30;;;;;;;;;;;;;;;27.37;49.55;98456.50;5089965;28;19924;-67
2023/08/20 10:54:58;;;;;;;;;;;;;;;27.37;50.94;98459.31;5085843;28;19934;-66
2023/08/20 10:57:33;;;;;;;;;;;;;;;27.38;50.64;98456.13;5089736;28;19931;-67
2023/08/20 11:00:05;;;;;;;;;;;;;;;27.39;50.57;98456.91;5089127;28;19924;-66
2023/08/20 11:02:35;;;;;;;;;;;;;;;27.43;50.95;98452.06;5071537;28;20540;-67
2023/08/20 11:05:05;;;;;;;;;;;;;;;27.46;49.80;98453.25;5089055;28;19959;-67
2023/08/20 11:07:34;;;;;;;;;;;;;;;27.45;48.95;98448.91;5071683;28;19935;-67
2023/08/20 11:10:03;;;;;;;;;;;;;;;27.53;48.89;98448.41;5085036;28;19924;-67
2023/08/20 11:12:31;;;;;;;;;;;;;;;27.50;50.27;98446.47;5089207;28;20007;-66
2023/08/20 11:15:01;;;;;;;;;;;;;;;27.47;51.06;98447.25;5089750;28;19932;-66
2023/08/20 11:17:29;;;;;;;;;;;;;;;27.49;49.25;98444.09;5070905;28;19970;-66
2023/08/20 11:19:59;;;;;;;;;;;;;;;27.60;48.72;98440.00;5065164;28;20019;-66
2023/08/20 11:22:35;;;;;;;;;;;;;;;27.74;49.72;98435.50;5086283;28;19986;-67
2023/08/20 11:25:04;;;;;;;;;;;;;;;27.90;46.38;98430.16;5092838;28;20288;-67
2023/08/20 11:27:32;;;;;;;;;;;;;;;27.92;47.08;98430.53;5089779;28;20384;-67
2023/08/20 11:30:00;;;;;;;;;;;;;;;28.08;47.45;98436.34;5090159;28;19931;-66
2023/08/20 11:32:28;;;;;;;;;;;;;;;28.01;49.11;98430.03;5090843;28;19932;-66
2023/08/20 11:35:00;;;;;;;;;;;;;;;27.85;50.70;98433.41;5088035;28;19924;-67
2023/08/20 11:37:28;;;;;;;;;;;;;;;27.88;47.95;98440.94;5103210;28;19980;-67
2023/08/20 11:39:56;;;;;;;;;;;;;;;27.98;47.29;98430.88;5103867;28;20285;-67
2023/08/20 11:42:24;;;;;;;;;;;;;;;28.05;49.38;98437.19;5094443;28;20534;-66
2023/08/20 11:44:52;;;;;;;;;;;;;;;28.04;48.09;98426.44;5080876;28;19928;-66
2023/08/20 11:47:20;;;;;;;;;;;;;;;27.97;48.69;98432.88;5083873;28;19924;-67
2023/08/20 11:49:48;;;;;;;;;;;;;;;27.96;49.03;98428.47;5065710;28;19924;-67
2023/08/20 11:52:20;;;;;;;;;;;;;;;27.95;47.60;98426.91;5085119;28;19989;-67
2023/08/20 11:54:48;;;;;;;;;;;;;;;27.92;48.14;98425.75;5057982;28;19932;-66
2023/08/20 11:57:16;;;;;;;;;;;;;;;28.04;49.74;98418.84;5043951;28;19929;-66
2023/08/20 11:59:44;;;;;;;;;;;;;;;27.90;50.05;98425.34;5049047;28;20329;-66
2023/08/20 12:02:12;;;;;;;;;;;;;;;28.01;47.72;98430.81;5047501;28;19925;-67
2023/08/20 12:04:40;;;;;;;;;;;;;;;28.13;47.73;98421.94;5046137;28;19929;-66
2023/08/20 12:07:09;;;;;;;;;;;;;;;28.07;47.69;98423.59;5033976;28;19933;-67
2023/08/20 12:09:38;;;;;;;;;;;;;;;28.15;49.37;98425.09;5047285;28;19928;-67
2023/08/20 12:12:07;;;;;;;;;;;;;;;28.16;48.67;98415.50;5045994;28;19932;-68
2023/08/20 12:14:35;;;;;;;;;;;;;;;28.19;47.26;98411.09;5048579;28;19931;-67
2023/08/20 12:17:03;;;;;;;;;;;;;;;28.25;47.38;98411.44;5048367;28;19925;-67
2023/08/20 12:19:33;;;;;;;;;;;;;;;28.33;48.21;98412.94;5042961;28;20480;-67
2023/08/20 12:22:01;;;;;;;;;;;;;;;28.25;47.72;98411.44;5052943;28;19925;-66
2023/08/20 12:24:29;;;;;;;;;;;;;;;28.27;48.15;98415.38;5039564;28;20279;-67
2023/08/20 12:26:58;;;;;;;;;;;;;;;28.30;47.24;98408.16;5049307;28;19925;-67
2023/08/20 12:29:26;;;;;;;;;;;;;;;28.32;46.42;98405.75;5043950;28;20354;-67
2023/08/20 12:31:54;;;;;;;;;;;;;;;28.34;46.22;98398.56;5048740;28;19924;-67
2023/08/20 12:34:23;;;;;;;;;;;;;;;28.39;45.43;98402.88;5048293;28;20240;-67
2023/08/20 12:36:51;;;;;;;;;;;;;;;28.36;46.29;98398.94;5041681;28;20665;-67
2023/08/20 12:39:19;;;;;;;;;;;;;;;28.31;45.69;98393.78;5049413;28;20818;-67
2023/08/20 12:41:48;;;;;;;;;;;;;;;28.44;45.34;98392.06;5051819;28;19963;-66
2023/08/20 12:44:17;;;;;;;;;;;;;;;28.38;47.20;98396.50;5048962;28;19925;-67
2023/08/20 12:46:45;;;;;;;;;;;;;;;28.31;46.92;98393.78;5042480;28;20425;-67
2023/08/20 12:49:17;;;;;;;;;;;;;;;28.35;47.35;98388.19;5045726;28;20354;-66
2023/08/20 12:51:45;;;;;;;;;;;;;;;28.44;46.98;98389.25;5047404;28;20024;-67
2023/08/20 12:54:13;;;;;;;;;;;;;;;28.38;47.99;98388.13;5045104;28;20632;-67
2023/08/20 12:56:40;;;;;;;;;;;;;;;28.39;47.09;98386.09;5074267;28;19924;-67